• Join FlightAware (Why Join?)
  • Login
  • US Flag 
09:32PM EDT


 

Airport Tracker/Info


-or-


 

Live Flight TrackerFlight Track Log ✈ N84CF ✈ 27-May-2013 ✈ KISM - KECP

Flight Track Log - Related Links

Times and Time Zones

All times are in EDT time to prevent confusion due to time zone crossing. See the N84CF flight status page for this flight to view local times or setup timezone preferences in your user account.

Time Position Orientation Groundspeed Altitude Reporting Facility
EDT Latitude Longitude Course Direction KTS MPH feet Rate Location/Type
06:14PM 28.3000 -81.4333 360° North 126 145 500  Level Orlando TRACON
06:14PM 28.3167 -81.4333 360° North 133 153 1,400 1,020 Climbing Orlando TRACON
06:15PM 28.3500 -81.4833 307° West 177 204 2,100 1,140 Climbing Orlando TRACON
06:16PM 28.3833 -81.5167 319° Northwest 163 188 3,700 1,380 Climbing Orlando TRACON
06:17PM 28.4000 -81.5500 300° West 169 194 4,900 1,200 Climbing Orlando TRACON
06:18PM 28.4333 -81.6000 307° West 164 189 6,200 1,200 Climbing Orlando TRACON
06:19PM 28.4667 -81.6333 319° Northwest 165 190 7,400 1,080 Climbing Orlando TRACON
06:20PM 28.5000 -81.6667 319° Northwest 181 208 8,400 1,020 Climbing Orlando TRACON
06:21PM 28.5500 -81.7167 319° Northwest 180 207 9,500 960 Climbing Orlando TRACON
06:23PM 28.6233 -81.8117 311° West 192 221 11,700 960 Climbing Jacksonville Center
06:24PM 28.6447 -81.8683 293° West 192 221 12,700 1,080 Climbing Jacksonville Center
06:25PM 28.6658 -81.9200 295° West 192 221 13,900 1,080 Climbing Jacksonville Center
06:26PM 28.6767 -81.9792 282° West 187 215 14,900 840 Climbing Jacksonville Center
06:27PM 28.6897 -82.0289 287° West 187 215 15,600 840 Climbing Jacksonville Center
06:28PM 28.7047 -82.0878 286° West 187 215 16,600 900 Climbing Jacksonville Center
06:29PM 28.7319 -82.1444 299° West 192 221 17,400 780 Climbing Jacksonville Center
06:30PM 28.7594 -82.2011 299° West 197 227 18,200 840 Climbing Jacksonville Center
06:31PM 28.7806 -82.2553 294° West 197 227 19,100 780 Climbing Jacksonville Center
06:32PM 28.8061 -82.3097 298° West 197 227 19,800 780 Climbing Jacksonville Center
06:33PM 28.8356 -82.3689 300° West 197 227 20,700 780 Climbing Jacksonville Center
06:34PM 28.8586 -82.4256 295° West 197 227 21,400 600 Climbing Jacksonville Center
06:35PM 28.8839 -82.4775 299° West 197 227 22,000 300 Climbing Jacksonville Center
06:36PM 28.9069 -82.5414 292° West 197 227 22,000  Level Jacksonville Center
06:37PM 28.9342 -82.6078 295° West 217 250 22,000  Level Jacksonville Center
06:38PM 28.9617 -82.6742 295° West 222 255 22,000  Level Jacksonville Center
06:39PM 28.9889 -82.7431 294° West 233 268 22,000  Level Jacksonville Center
06:40PM 29.0203 -82.8072 299° West 233 268 22,000  Level Jacksonville Center
06:41PM 29.0472 -82.8736 295° West 233 268 22,000  Level Jacksonville Center
06:42PM 29.0744 -82.9400 295° West 238 274 22,000  Level Jacksonville Center
06:43PM 29.1036 -83.0067 297° West 238 274 22,000  Level Jacksonville Center
06:44PM 29.1308 -83.0733 295° West 238 274 22,000  Level Jacksonville Center
06:45PM 29.1597 -83.1397 296° West 238 274 22,000  Level Jacksonville Center
06:46PM 29.1867 -83.2042 296° West 238 274 22,000  Level Jacksonville Center
06:47PM 29.2158 -83.2686 297° West 238 274 22,100  Climbing Jacksonville Center
06:48PM 29.2469 -83.3306 300° West 233 268 22,000 -60 Descending Jacksonville Center
06:49PM 29.2758 -83.3950 297° West 233 268 22,000  Level Jacksonville Center
06:50PM 29.3069 -83.4594 299° West 233 268 22,000  Level Jacksonville Center
06:51PM 29.3339 -83.5214 297° West 228 262 22,100  Climbing Jacksonville Center
06:52PM 29.3606 -83.5858 295° West 223 257 22,000 -120 Descending Jacksonville Center
06:53PM 29.3894 -83.6506 297° West 223 257 21,900  Descending Jacksonville Center
06:54PM 29.4183 -83.7128 298° West 218 251 22,000  Climbing Jacksonville Center
06:55PM 29.4472 -83.7772 297° West 218 251 22,000  Level Jacksonville Center
06:56PM 29.4781 -83.8419 299° West 223 257 22,000  Level Jacksonville Center
06:57PM 29.5067 -83.9044 298° West 223 257 22,000 -60 Level Jacksonville Center
06:58PM 29.5356 -83.9667 298° West 223 257 21,900 -300 Descending Jacksonville Center
06:59PM 29.5661 -84.0317 298° West 223 257 21,500 -480 Descending Jacksonville Center
07:00PM 29.6011 -84.0964 302° West 223 257 21,000 -480 Descending Jacksonville Center
07:01PM 29.6317 -84.1661 297° West 228 262 20,600 -480 Descending Jacksonville Center
07:02PM 29.6667 -84.2358 300° West 233 268 20,100 -480 Descending Jacksonville Center
07:03PM 29.6992 -84.3056 298° West 245 282 19,700 -420 Descending Jacksonville Center
07:04PM 29.7317 -84.3756 298° West 250 288 19,300 -540 Descending Jacksonville Center
07:05PM 29.7664 -84.4478 299° West 250 288 18,700 -600 Descending Jacksonville Center
07:06PM 29.7989 -84.5178 298° West 250 288 18,100 -480 Descending Jacksonville Center
07:07PM 29.8294 -84.5900 296° West 250 288 17,800 -540 Descending Jacksonville Center
07:08PM 29.8639 -84.6650 298° West 250 288 17,100 -780 Descending Jacksonville Center
07:09PM 29.8942 -84.7350 297° West 250 288 16,300 -720 Descending Jacksonville Center
07:10PM 29.9286 -84.8075 299° West 250 288 15,700 -780 Descending Jacksonville Center
07:11PM 29.9589 -84.8775 297° West 250 288 14,800 -900 Descending Jacksonville Center
07:12PM 29.9931 -84.9525 298° West 255 293 14,000 -840 Descending Jacksonville Center
07:13PM 30.0253 -85.0253 297° West 255 293 13,200 -840 Descending Jacksonville Center
07:14PM 30.0597 -85.0956 300° West 260 299 12,400 -840 Descending Jacksonville Center
07:15PM 30.0939 -85.1661 299° West 260 299 11,600 -720 Descending Jacksonville Center
07:16PM 30.1303 -85.2367 301° West 255 293 11,000 -660 Descending Jacksonville Center
07:17PM 30.1622 -85.3047 299° West 245 282 10,300 -780 Descending Jacksonville Center
07:18PM 30.1925 -85.3678 299° West 245 282 9,500 -1,080 Descending Jacksonville Center
07:19PM 30.2264 -85.4383 299° West 250 288 8,200 -1,380 Descending Jacksonville Center
07:20PM 30.2606 -85.5114 298° West 250 288 6,800 -1,560 Descending Jacksonville Center
07:21PM 30.2925 -85.5844 297° West 250 288 5,100 -1,740 Descending Jacksonville Center
07:22PM 30.3222 -85.6575 295° West 255 293 3,400 -1,740 Descending Jacksonville Center
07:23PM 30.3539 -85.7306 297° West 255 293 1,700 -1,200 Descending Jacksonville Center
07:24PM 30.3842 -85.7797 306° West 233 268 1,100 -480 Descending Jacksonville Center
07:25PM 30.4161 -85.8481 298° West 223 257 800 -300 Descending Jacksonville Center